Time;durP1;ratioP1;P1;durP2;ratioP2;P2;SDS_P1;SDS_P2;PMS_P1;PMS_P2;Temp;Humidity;BMP_temperature;BMP_pressure;BME280_temperature;BME280_humidity;BME280_pressure;Samples;Min_cycle;Max_cycle;Signal;HPM_P1;HPM_P2
2022/10/12 04:01:40;;;;;;;7.63;2.70;;;2.40;96.30;;;;;;5358079;23;20506;-80
2022/10/12 04:04:06;;;;;;;5.20;2.17;;;2.60;96.30;;;;;;4937491;29;20427;-79
2022/10/12 04:06:32;;;;;;;11.63;1.97;;;2.70;96.30;;;;;;4936342;29;20183;-80
2022/10/12 04:08:57;;;;;;;11.33;2.30;;;2.70;96.30;;;;;;4932551;29;20223;-81
2022/10/12 04:11:23;;;;;;;15.37;2.83;;;2.70;96.30;;;;;;4918509;29;20188;-80
2022/10/12 04:13:49;;;;;;;7.80;2.50;;;2.60;96.30;;;;;;4918827;29;20643;-79
2022/10/12 04:16:14;;;;;;;9.30;2.40;;;2.50;96.30;;;;;;4917791;29;20172;-78
2022/10/12 04:18:58;;;;;;;10.07;4.53;;;2.50;96.30;;;;;;4916892;29;20668;-78
2022/10/12 04:21:24;;;;;;;25.97;12.67;;;2.50;96.30;;;;;;4919286;29;20680;-76
2022/10/12 04:23:50;;;;;;;51.03;23.80;;;2.60;96.30;;;;;;4916954;29;20926;-77
2022/10/12 04:26:16;;;;;;;76.70;34.73;;;2.80;96.30;;;;;;4918205;29;20476;-76
2022/10/12 04:28:41;;;;;;;8.10;5.80;;;2.90;96.30;;;;;;4917661;29;20207;-76
2022/10/12 04:31:07;;;;;;;6.30;2.70;;;2.90;96.30;;;;;;4918174;29;20227;-77
2022/10/12 04:33:32;;;;;;;4.33;2.17;;;2.80;96.30;;;;;;4937023;29;20644;-77
2022/10/12 04:35:58;;;;;;;9.13;2.10;;;2.60;96.30;;;;;;4936921;29;20179;-77
2022/10/12 04:38:23;;;;;;;4.33;2.80;;;2.60;96.30;;;;;;4936470;29;20187;-77
2022/10/12 04:40:49;;;;;;;3.93;1.90;;;2.50;96.30;;;;;;4936267;29;20196;-77
2022/10/12 04:43:15;;;;;;;6.40;2.00;;;2.50;96.30;;;;;;4936985;29;20671;-78
2022/10/12 04:45:41;;;;;;;5.57;2.23;;;2.50;96.30;;;;;;4936898;29;20175;-76
2022/10/12 04:48:07;;;;;;;8.53;2.00;;;2.40;96.30;;;;;;4932617;29;20424;-75
2022/10/12 04:50:32;;;;;;;4.00;1.90;;;2.40;96.30;;;;;;4917755;29;20220;-77
2022/10/12 04:52:58;;;;;;;5.40;2.60;;;2.40;96.30;;;;;;4917512;29;20176;-76
2022/10/12 04:55:23;;;;;;;4.87;2.23;;;2.40;96.30;;;;;;4916366;29;20183;-76
2022/10/12 04:57:49;;;;;;;4.13;2.70;;;2.50;96.30;;;;;;4915770;29;20649;-76
2022/10/12 05:00:15;;;;;;;8.63;3.30;;;2.40;96.30;;;;;;4917349;29;20586;-75
2022/10/12 05:02:41;;;;;;;5.50;2.60;;;2.40;96.30;;;;;;4917256;29;20280;-78
2022/10/12 05:05:07;;;;;;;4.73;2.60;;;2.30;96.30;;;;;;4917514;29;20453;-76
2022/10/12 05:07:33;;;;;;;6.23;2.37;;;2.40;96.30;;;;;;4916853;29;20184;-76
2022/10/12 05:09:58;;;;;;;3.40;1.90;;;2.50;96.30;;;;;;4917385;29;20452;-76
2022/10/12 05:12:24;;;;;;;6.67;2.17;;;2.50;96.30;;;;;;4916075;29;20200;-76
2022/10/12 05:14:49;;;;;;;8.10;2.27;;;2.50;96.30;;;;;;4917598;29;20176;-76
2022/10/12 05:17:15;;;;;;;7.70;2.47;;;2.50;96.30;;;;;;4916654;29;20176;-76
2022/10/12 05:19:40;;;;;;;6.00;2.17;;;2.50;96.30;;;;;;4917246;29;20181;-76
2022/10/12 05:22:06;;;;;;;5.07;2.43;;;2.50;96.30;;;;;;4917147;29;20203;-78
2022/10/12 05:24:31;;;;;;;6.30;2.50;;;2.50;96.30;;;;;;4925831;29;20274;-76
2022/10/12 05:26:57;;;;;;;4.80;2.63;;;2.50;96.30;;;;;;4935614;29;20208;-76
2022/10/12 05:29:22;;;;;;;3.97;2.30;;;2.40;96.30;;;;;;4936022;29;20701;-77
2022/10/12 05:31:48;;;;;;;8.17;2.67;;;2.40;96.30;;;;;;4935891;29;20211;-76
2022/10/12 05:34:13;;;;;;;3.37;2.50;;;2.40;96.30;;;;;;4934631;29;20176;-77
2022/10/12 05:36:39;;;;;;;20.77;2.33;;;2.40;96.30;;;;;;4934381;29;20238;-77
2022/10/12 05:39:04;;;;;;;6.70;2.70;;;2.40;96.30;;;;;;4935630;29;20164;-76
2022/10/12 05:41:30;;;;;;;5.33;2.73;;;2.50;96.30;;;;;;4935775;29;20195;-76
2022/10/12 05:43:56;;;;;;;7.23;2.40;;;2.60;96.30;;;;;;4935699;29;20197;-76
2022/10/12 05:46:21;;;;;;;6.60;2.50;;;2.70;96.30;;;;;;4934404;29;20245;-77
2022/10/12 05:48:47;;;;;;;5.03;2.33;;;2.90;96.30;;;;;;4935081;29;20206;-76
2022/10/12 05:51:12;;;;;;;5.30;2.50;;;3.00;96.30;;;;;;4935182;29;20231;-76
2022/10/12 05:53:38;;;;;;;4.90;2.20;;;3.20;96.30;;;;;;4935390;29;20199;-76
2022/10/12 05:56:04;;;;;;;5.93;2.47;;;3.70;96.30;;;;;;4935656;29;20215;-76
2022/10/12 05:58:29;;;;;;;8.83;2.50;;;4.20;96.30;;;;;;4935152;29;20180;-77
2022/10/12 06:01:03;;;;;;;10.50;2.80;;;4.50;96.30;;;;;;4935350;29;20219;-78
2022/10/12 06:03:29;;;;;;;4.77;2.30;;;5.00;96.30;;;;;;4935595;29;20722;-78
2022/10/12 06:05:54;;;;;;;3.13;1.80;;;5.60;96.30;;;;;;4934174;29;20427;-77
2022/10/12 06:08:20;;;;;;;6.60;2.77;;;6.30;96.30;;;;;;4933755;29;20342;-78
2022/10/12 06:10:49;;;;;;;4.00;2.10;;;7.20;96.30;;;;;;4933378;29;20675;-78
2022/10/12 06:13:16;;;;;;;11.20;3.07;;;8.00;96.30;;;;;;4935255;29;20171;-77
2022/10/12 06:15:47;;;;;;;5.10;1.90;;;8.80;96.30;;;;;;4924473;29;20423;-77
2022/10/12 06:18:13;;;;;;;4.60;1.80;;;9.40;96.30;;;;;;4915544;29;20420;-77
2022/10/12 06:20:39;;;;;;;6.00;1.80;;;10.20;96.30;;;;;;4916180;29;20508;-77
2022/10/12 06:23:05;;;;;;;5.20;1.93;;;11.20;96.30;;;;;;4916837;29;20503;-77
2022/10/12 06:25:31;;;;;;;4.03;1.77;;;11.40;96.30;;;;;;4916154;29;20231;-77
2022/10/12 06:27:57;;;;;;;3.50;2.23;;;12.00;96.30;;;;;;4915460;29;20424;-77
2022/10/12 06:30:22;;;;;;;3.50;1.93;;;12.70;96.30;;;;;;4914508;29;20594;-77
2022/10/12 06:32:48;;;;;;;4.67;1.90;;;13.50;96.30;;;;;;4916001;29;20176;-77
2022/10/12 06:35:13;;;;;;;5.30;2.27;;;13.80;96.30;;;;;;4916061;29;20180;-77
2022/10/12 06:37:39;;;;;;;8.23;2.90;;;14.40;96.30;;;;;;4915372;29;20632;-77
2022/10/12 06:40:05;;;;;;;5.70;2.43;;;15.20;96.30;;;;;;4914586;29;20180;-77
2022/10/12 06:42:31;;;;;;;5.93;2.37;;;15.50;96.30;;;;;;4915814;29;20207;-77
2022/10/12 06:44:56;;;;;;;4.90;2.10;;;15.20;96.30;;;;;;4915787;29;20413;-77
2022/10/12 06:47:22;;;;;;;6.20;2.27;;;15.80;96.30;;;;;;4915295;29;20625;-77
2022/10/12 06:49:47;;;;;;;5.23;2.03;;;16.50;96.20;;;;;;4916899;29;20218;-77
2022/10/12 06:52:13;;;;;;;4.17;2.50;;;16.70;93.50;;;;;;4930192;29;20225;-77
2022/10/12 06:54:40;;;;;;;5.60;2.03;;;16.10;93.70;;;;;;4915246;29;20184;-77
2022/10/12 06:57:06;;;;;;;6.60;2.00;;;14.30;96.30;;;;;;4920037;29;20271;-77
2022/10/12 06:59:31;;;;;;;9.40;2.20;;;13.70;96.30;;;;;;4915779;29;20417;-77
2022/10/12 07:01:57;;;;;;;2.93;1.40;;;13.80;96.30;;;;;;4914321;29;20451;-77
2022/10/12 07:04:22;;;;;;;6.20;2.60;;;14.00;96.30;;;;;;4918707;29;20180;-77
2022/10/12 07:06:48;;;;;;;2.60;1.70;;;14.30;96.30;;;;;;4917876;29;20176;-77
2022/10/12 07:09:15;;;;;;;5.83;1.60;;;13.60;96.30;;;;;;4929167;29;20547;-77
2022/10/12 07:11:41;;;;;;;3.53;1.50;;;12.80;96.30;;;;;;4938495;29;20191;-77
2022/10/12 07:14:06;;;;;;;3.37;1.60;;;11.90;96.30;;;;;;4938267;29;20418;-77
2022/10/12 07:16:32;;;;;;;5.80;2.50;;;11.30;96.30;;;;;;4938352;29;20590;-77
2022/10/12 07:18:57;;;;;;;6.60;2.10;;;10.70;96.30;;;;;;4937916;29;20203;-76
2022/10/12 07:21:23;;;;;;;5.17;2.63;;;10.20;96.30;;;;;;4938310;29;20199;-76
2022/10/12 07:23:48;;;;;;;7.27;2.13;;;9.80;96.30;;;;;;4937071;29;20179;-77
2022/10/12 07:26:14;;;;;;;4.80;2.23;;;9.40;96.30;;;;;;4938254;29;20690;-76
2022/10/12 07:28:39;;;;;;;4.23;1.87;;;9.00;96.30;;;;;;4937504;29;20191;-76
2022/10/12 07:31:08;;;;;;;6.40;1.83;;;9.10;96.30;;;;;;4938258;29;20255;-76
2022/10/12 07:33:37;;;;;;;6.53;1.70;;;9.00;96.30;;;;;;4936827;29;20180;-76
2022/10/12 07:36:03;;;;;;;8.83;2.30;;;9.10;96.30;;;;;;4938096;29;20443;-76
2022/10/12 07:38:29;;;;;;;6.90;2.43;;;9.40;96.30;;;;;;4937407;29;20490;-76
2022/10/12 07:41:01;;;;;;;8.30;2.37;;;9.40;96.30;;;;;;4938014;29;20447;-76
2022/10/12 07:43:28;;;;;;;5.63;2.00;;;9.70;96.30;;;;;;4937965;29;20211;-76
2022/10/12 07:45:53;;;;;;;9.90;2.13;;;9.80;96.30;;;;;;4926161;29;20427;-76
2022/10/12 07:48:19;;;;;;;6.03;1.97;;;9.70;96.30;;;;;;4917412;29;20424;-76
2022/10/12 07:50:45;;;;;;;9.47;2.13;;;9.50;96.30;;;;;;4918590;29;20212;-76
2022/10/12 07:53:10;;;;;;;4.60;2.17;;;9.60;96.30;;;;;;4918867;29;20173;-76
2022/10/12 07:55:36;;;;;;;6.80;2.63;;;9.70;96.30;;;;;;4918885;29;20292;-76
2022/10/12 07:58:01;;;;;;;8.70;3.20;;;10.00;96.30;;;;;;4918043;29;20649;-76
2022/10/12 08:00:29;;;;;;;10.00;2.30;;;10.30;96.30;;;;;;4918450;29;20172;-76
2022/10/12 08:02:55;;;;;;;10.00;2.37;;;10.50;96.30;;;;;;4918731;29;20168;-77
2022/10/12 08:05:21;;;;;;;6.30;2.10;;;10.70;96.30;;;;;;4918606;29;20763;-76
2022/10/12 08:07:47;;;;;;;6.43;2.60;;;10.80;96.30;;;;;;4917980;29;20182;-76
2022/10/12 08:10:13;;;;;;;4.87;2.00;;;10.90;96.30;;;;;;4916854;29;20468;-76
2022/10/12 08:12:39;;;;;;;5.53;1.73;;;10.70;96.30;;;;;;4917522;29;20419;-76
2022/10/12 08:15:05;;;;;;;9.07;2.37;;;10.80;96.30;;;;;;4917796;29;20176;-76
2022/10/12 08:17:31;;;;;;;5.07;2.10;;;10.90;96.30;;;;;;4918906;29;20207;-76
2022/10/12 08:19:57;;;;;;;5.43;2.07;;;10.90;96.30;;;;;;4918857;29;20453;-76
2022/10/12 08:22:22;;;;;;;3.13;2.20;;;10.90;96.30;;;;;;4917482;29;20215;-76
2022/10/12 08:24:48;;;;;;;4.83;1.67;;;10.80;96.30;;;;;;4918773;29;20463;-76
2022/10/12 08:27:13;;;;;;;3.93;1.97;;;10.80;96.30;;;;;;4918384;29;20255;-76
2022/10/12 08:29:39;;;;;;;8.30;2.27;;;11.00;96.30;;;;;;4918746;29;20204;-76
2022/10/12 08:32:05;;;;;;;5.83;2.33;;;11.00;96.30;;;;;;4918761;29;20192;-76
2022/10/12 08:34:31;;;;;;;14.47;2.20;;;11.10;96.30;;;;;;4918767;29;20153;-76
2022/10/12 08:36:59;;;;;;;5.63;1.73;;;11.10;96.30;;;;;;4917837;29;20540;-76
2022/10/12 08:39:25;;;;;;;7.20;2.10;;;11.20;96.30;;;;;;4918199;29;20183;-76
2022/10/12 08:42:05;;;;;;;9.40;2.97;;;11.20;96.30;;;;;;4917770;29;20436;-75
2022/10/12 08:44:46;;;;;;;6.57;1.80;;;11.30;96.30;;;;;;4917959;29;20172;-75
2022/10/12 08:47:17;;;;;;;8.37;1.97;;;11.40;96.30;;;;;;4917251;29;20423;-76
2022/10/12 08:49:44;;;;;;;9.13;2.10;;;11.60;96.30;;;;;;4917637;29;20452;-75
2022/10/12 08:52:39;;;;;;;6.50;1.97;;;11.90;96.30;;;;;;4917563;29;20520;-75
2022/10/12 08:55:17;;;;;;;5.80;1.70;;;12.00;96.30;;;;;;4917739;29;20771;-75
2022/10/12 08:57:42;;;;;;;7.13;2.30;;;12.30;96.30;;;;;;4917046;29;20396;-76
2022/10/12 09:00:15;;;;;;;6.63;2.40;;;12.40;96.30;;;;;;4917502;29;20519;-75
2022/10/12 09:03:07;;;;;;;5.73;1.73;;;12.80;96.30;;;;;;4917616;29;20506;-76
2022/10/12 09:05:40;;;;;;;6.70;2.00;;;13.50;96.30;;;;;;4917458;29;20447;-76
2022/10/12 09:08:22;;;;;;;1.63;1.13;;;14.90;96.30;;;;;;4915549;29;20512;-76
2022/10/12 09:11:09;;;;;;;11.77;3.40;;;15.80;96.30;;;;;;4917216;29;20436;-76
2022/10/12 09:13:50;;;;;;;7.43;1.93;;;16.00;96.30;;;;;;4917403;29;20404;-76
2022/10/12 09:16:23;;;;;;;5.60;1.77;;;16.50;96.30;;;;;;4916025;29;20412;-76
2022/10/12 09:18:53;;;;;;;7.83;1.90;;;16.70;96.30;;;;;;4916698;29;20821;-76
2022/10/12 09:21:21;;;;;;;11.27;1.80;;;16.40;96.30;;;;;;4916989;29;20495;-76
2022/10/12 09:23:48;;;;;;;9.97;1.80;;;17.10;95.80;;;;;;4917128;29;20419;-76
2022/10/12 09:26:19;;;;;;;5.13;1.77;;;16.50;96.30;;;;;;4916896;29;20916;-76
2022/10/12 09:28:47;;;;;;;5.47;1.70;;;16.40;96.20;;;;;;4916367;29;20463;-76
2022/10/12 09:31:50;;;;;;;6.20;2.70;;;16.40;96.30;;;;;;4916964;29;20432;-76
2022/10/12 09:34:17;;;;;;;13.10;2.53;;;17.00;95.30;;;;;;4916973;29;20820;-76
2022/10/12 09:36:42;;;;;;;4.73;2.47;;;16.90;95.60;;;;;;4917148;29;20503;-76
2022/10/12 09:39:16;;;;;;;8.57;2.70;;;17.00;95.70;;;;;;4922200;29;21731;-76
2022/10/12 09:41:44;;;;;;;6.93;1.73;;;16.70;96.30;;;;;;4935082;29;20199;-76
2022/10/12 09:44:22;;;;;;;8.67;1.83;;;16.90;95.50;;;;;;4935420;29;20431;-76
2022/10/12 09:46:57;;;;;;;4.93;1.57;;;16.60;96.30;;;;;;4919012;29;20435;-76
2022/10/12 09:49:39;;;;;;;5.33;1.43;;;17.00;95.80;;;;;;4916321;29;20490;-76
2022/10/12 09:52:05;;;;;;;7.73;1.80;;;17.20;95.30;;;;;;4915213;29;20454;-76
2022/10/12 09:54:32;;;;;;;7.43;3.20;;;17.10;93.90;;;;;;4914699;29;20452;-75
2022/10/12 09:56:57;;;;;;;6.90;2.60;;;16.60;96.30;;;;;;4916254;29;20239;-76
2022/10/12 09:59:23;;;;;;;4.97;1.33;;;16.40;96.30;;;;;;4931904;29;20431;-75
2022/10/12 10:02:10;;;;;;;4.00;1.40;;;16.60;95.50;;;;;;4934428;29;20219;-75
2022/10/12 10:04:40;;;;;;;7.27;1.63;;;17.00;94.80;;;;;;4916947;29;20196;-76
2022/10/12 10:07:23;;;;;;;6.57;1.50;;;17.10;93.20;;;;;;4916656;29;20519;-77
2022/10/12 10:10:15;;;;;;;5.47;1.60;;;17.20;93.30;;;;;;4916311;29;20468;-74
2022/10/12 10:12:48;;;;;;;10.40;1.70;;;17.90;92.50;;;;;;4916222;29;20951;-74
2022/10/12 10:15:27;;;;;;;8.80;1.83;;;17.80;93.20;;;;;;4917757;29;20827;-75
2022/10/12 10:18:01;;;;;;;4.20;1.50;;;17.60;92.60;;;;;;4916552;29;20781;-74
2022/10/12 10:20:35;;;;;;;5.50;1.63;;;17.20;93.60;;;;;;4916239;29;20412;-74
2022/10/12 10:23:03;;;;;;;6.67;1.53;;;17.90;93.90;;;;;;4916424;29;20431;-74
2022/10/12 10:25:30;;;;;;;7.93;1.80;;;18.10;93.60;;;;;;4916188;29;20570;-74
2022/10/12 10:28:11;;;;;;;5.87;1.50;;;18.00;93.70;;;;;;4916498;29;20416;-74
2022/10/12 10:30:36;;;;;;;9.03;1.53;;;18.10;91.60;;;;;;4915903;29;20439;-74
2022/10/12 10:33:16;;;;;;;6.97;2.70;;;18.30;91.40;;;;;;4916037;29;20405;-74
2022/10/12 10:35:59;;;;;;;5.40;1.40;;;17.30;92.60;;;;;;4916108;29;20183;-74
2022/10/12 10:38:25;;;;;;;4.30;1.47;;;;;;;;;;4915000;29;20888;-75
2022/10/12 10:40:53;;;;;;;3.60;1.60;;;17.30;93.60;;;;;;4915915;29;20462;-73
2022/10/12 10:43:29;;;;;;;8.80;1.90;;;17.60;94.10;;;;;;4915968;29;20187;-74
2022/10/12 10:45:58;;;;;;;4.13;2.13;;;17.60;92.60;;;;;;4915996;29;20412;-75
2022/10/12 10:48:29;;;;;;;7.23;1.53;;;17.30;93.20;;;;;;4915279;29;20404;-73
2022/10/12 10:51:01;;;;;;;10.90;2.33;;;16.20;95.80;;;;;;4915803;29;20428;-74
2022/10/12 10:53:42;;;;;;;9.60;3.10;;;16.50;96.20;;;;;;4915867;29;20420;-74
2022/10/12 10:56:13;;;;;;;7.53;1.50;;;16.80;96.30;;;;;;4915869;29;20913;-74
2022/10/12 10:58:49;;;;;;;12.50;2.13;;;17.20;94.80;;;;;;4915286;29;20420;-74
2022/10/12 11:01:30;;;;;;;3.67;1.40;;;17.50;93.90;;;;;;4915582;29;20463;-74
2022/10/12 11:04:06;;;;;;;8.97;2.10;;;17.70;92.90;;;;;;4915732;29;20482;-75
2022/10/12 11:06:38;;;;;;;6.50;1.90;;;17.40;95.10;;;;;;4915833;29;20869;-74
2022/10/12 11:09:10;;;;;;;6.27;2.50;;;17.20;95.60;;;;;;4914109;29;20463;-73
2022/10/12 11:11:38;;;;;;;11.53;2.43;;;17.60;95.50;;;;;;4914231;29;21019;-75
2022/10/12 11:14:14;;;;;;;9.50;2.17;;;18.00;94.60;;;;;;4915634;29;20819;-74
2022/10/12 11:17:02;;;;;;;5.57;1.67;;;18.00;95.70;;;;;;4915498;29;20389;-74
2022/10/12 11:19:48;;;;;;;5.67;2.03;;;18.60;96.30;;;;;;4915654;29;20471;-75
2022/10/12 11:22:13;;;;;;;7.80;2.00;;;18.90;94.80;;;;;;4915567;29;20432;-73
2022/10/12 11:24:53;;;;;;;8.63;1.90;;;18.80;95.00;;;;;;4915593;29;20427;-74
2022/10/12 11:27:31;;;;;;;10.00;2.20;;;18.30;92.10;;;;;;4921222;29;20184;-74
2022/10/12 11:30:00;;;;;;;10.20;2.63;;;18.50;94.00;;;;;;4921319;29;20478;-75
2022/10/12 11:32:31;;;;;;;6.63;2.37;;;18.50;94.40;;;;;;4932605;29;20431;-75
2022/10/12 11:35:01;;;;;;;12.53;2.47;;;18.30;94.10;;;;;;4929175;29;20435;-76
2022/10/12 11:38:03;;;;;;;7.67;2.60;;;17.70;95.00;;;;;;4932350;29;20435;-74
2022/10/12 11:40:35;;;;;;;6.97;2.13;;;17.90;94.80;;;;;;4931477;29;20464;-75
2022/10/12 11:43:06;;;;;;;4.53;2.30;;;17.30;95.30;;;;;;4932609;29;20445;-75
2022/10/12 11:45:38;;;;;;;5.47;1.80;;;17.20;96.20;;;;;;4933070;29;20422;-74
2022/10/12 11:48:12;;;;;;;8.63;2.60;;;16.60;96.30;;;;;;4932740;29;20913;-75
2022/10/12 11:50:49;;;;;;;9.30;2.37;;;16.80;96.30;;;;;;4935445;29;20478;-76
2022/10/12 11:53:39;;;;;;;7.27;2.37;;;17.10;96.30;;;;;;4921795;29;20971;-75
2022/10/12 11:56:19;;;;;;;4.53;2.00;;;17.90;96.00;;;;;;4918521;29;20574;-76
2022/10/12 11:58:46;;;;;;;4.97;2.10;;;18.60;96.30;;;;;;4917908;29;20412;-75
2022/10/12 12:01:51;;;;;;;8.37;2.00;;;18.50;93.80;;;;;;4923744;29;20459;-75
2022/10/12 12:04:24;;;;;;;8.80;3.23;;;18.50;93.70;;;;;;4925649;29;20446;-75
2022/10/12 12:06:54;;;;;;;5.33;2.50;;;18.30;92.10;;;;;;4928592;29;20430;-74
2022/10/12 12:09:42;;;;;;;7.83;2.30;;;18.10;96.30;;;;;;4933037;29;21002;-75
2022/10/12 12:12:24;;;;;;;5.80;2.80;;;17.90;94.40;;;;;;4937400;29;20927;-74
2022/10/12 12:14:50;;;;;;;10.80;2.50;;;;;;;;;;4935811;29;20948;-76
2022/10/12 12:17:16;;;;;;;8.60;2.87;;;18.50;96.30;;;;;;4924626;29;20432;-74
2022/10/12 12:19:43;;;;;;;7.43;2.27;;;18.30;93.50;;;;;;4918183;29;20176;-74
2022/10/12 12:22:14;;;;;;;3.80;1.73;;;18.90;96.30;;;;;;4918083;29;20200;-76
2022/10/12 12:24:49;;;;;;;5.13;2.27;;;19.00;96.30;;;;;;4929301;29;20436;-75
2022/10/12 12:27:23;;;;;;;5.40;2.33;;;19.10;94.50;;;;;;4926667;29;20416;-74
2022/10/12 12:29:51;;;;;;;11.03;2.90;;;19.10;91.30;;;;;;4918130;29;20496;-75
2022/10/12 12:32:17;;;;;;;6.87;1.93;;;;;;;;;;4917948;29;20432;-75
2022/10/12 12:34:57;;;;;;;8.40;2.63;;;18.50;91.80;;;;;;4918131;29;20467;-74
2022/10/12 12:37:27;;;;;;;10.37;2.70;;;17.70;94.30;;;;;;4923152;29;21001;-75
2022/10/12 12:39:56;;;;;;;8.50;2.83;;;17.60;95.70;;;;;;4923597;29;20428;-74
2022/10/12 12:42:27;;;;;;;5.57;2.30;;;17.20;96.30;;;;;;4927311;29;20446;-74
2022/10/12 12:44:53;;;;;;;11.07;2.57;;;17.60;96.30;;;;;;4924841;29;20491;-74
2022/10/12 12:47:35;;;;;;;10.70;2.77;;;18.30;96.30;;;;;;4923825;29;20988;-74
2022/10/12 12:50:21;;;;;;;6.00;2.40;;;18.50;93.20;;;;;;4917868;29;20204;-74
2022/10/12 12:52:47;;;;;;;3.60;1.77;;;18.40;94.20;;;;;;4917364;29;20444;-74
2022/10/12 12:55:13;;;;;;;6.57;1.93;;;18.70;93.60;;;;;;4930709;29;20460;-74
2022/10/12 12:57:47;;;;;;;7.30;2.17;;;18.80;93.10;;;;;;4935594;29;20467;-75
2022/10/12 13:00:43;;;;;;;16.10;2.63;;;18.60;93.20;;;;;;4934741;29;20270;-75
2022/10/12 13:03:27;;;;;;;6.97;2.00;;;18.20;95.50;;;;;;4944352;29;20436;-74
2022/10/12 13:06:12;;;;;;;7.10;2.20;;;;;;;;;;4936514;29;20596;-76
2022/10/12 13:09:08;;;;;;;9.20;2.27;;;19.20;93.80;;;;;;4934818;29;20939;-76
2022/10/12 13:12:20;;;;;;;3.20;1.90;;;19.50;92.40;;;;;;4935960;29;21031;-77
2022/10/12 13:15:22;;;;;;;5.50;2.37;;;19.80;92.60;;;;;;4919596;29;20543;-76
2022/10/12 13:18:13;;;;;;;8.23;2.60;;;20.00;87.70;;;;;;4916580;29;20404;-76
2022/10/12 13:20:40;;;;;;;4.23;2.20;;;19.30;90.00;;;;;;4933362;29;20469;-77
2022/10/12 13:23:12;;;;;;;3.73;2.37;;;18.60;93.00;;;;;;4926303;29;20506;-77
2022/10/12 13:25:49;;;;;;;5.53;2.90;;;;;;;;;;4936111;29;20735;-76
2022/10/12 13:28:17;;;;;;;9.10;2.57;;;;;;;;;;4933880;29;20414;-77
2022/10/12 13:30:53;;;;;;;3.70;2.40;;;17.20;96.20;;;;;;4935803;29;20982;-77
2022/10/12 13:33:37;;;;;;;8.07;2.37;;;17.00;96.30;;;;;;4935765;29;20423;-77
2022/10/12 13:36:12;;;;;;;4.60;2.73;;;16.80;96.30;;;;;;4929086;29;20424;-76
2022/10/12 13:38:39;;;;;;;4.47;2.20;;;16.70;96.30;;;;;;4920700;29;20427;-77
2022/10/12 13:41:15;;;;;;;3.87;2.70;;;;;;;;;;4928473;29;20446;-75
2022/10/12 13:43:54;;;;;;;4.47;2.77;;;16.50;96.30;;;;;;4934284;29;20426;-76
2022/10/12 13:46:43;;;;;;;7.27;2.93;;;16.90;96.30;;;;;;4933519;29;20518;-76
2022/10/12 13:49:33;;;;;;;7.20;2.17;;;17.40;96.30;;;;;;4925282;29;20466;-76
2022/10/12 13:52:00;;;;;;;6.17;3.00;;;;;;;;;;4924864;29;20456;-76
2022/10/12 13:54:39;;;;;;;8.53;2.70;;;;;;;;;;4934095;29;20816;-76
2022/10/12 13:57:14;;;;;;;9.67;2.80;;;17.80;96.30;;;;;;4916506;29;20507;-75
2022/10/12 13:59:40;;;;;;;4.30;2.10;;;;;;;;;;4916775;29;20420;-76
2022/10/12 14:02:17;;;;;;;7.63;2.80;;;18.10;94.20;;;;;;4916928;29;20483;-76
2022/10/12 14:04:43;;;;;;;6.83;2.80;;;17.80;95.20;;;;;;4916726;29;20186;-75
2022/10/12 14:07:21;;;;;;;7.70;2.43;;;17.40;96.20;;;;;;4931134;29;20518;-75
2022/10/12 14:09:54;;;;;;;5.07;2.90;;;17.00;96.30;;;;;;4934744;29;20259;-76
2022/10/12 14:12:20;;;;;;;5.80;2.47;;;;;;;;;;4924455;29;20445;-75
2022/10/12 14:14:47;;;;;;;7.60;2.30;;;;;;;;;;4927948;29;20454;-75
2022/10/12 14:17:17;;;;;;;6.23;2.93;;;16.40;96.30;;;;;;4930008;29;20430;-75
2022/10/12 14:19:46;;;;;;;10.60;2.87;;;16.00;96.30;;;;;;4935048;29;20411;-75
2022/10/12 14:22:26;;;;;;;6.20;2.37;;;15.70;96.30;;;;;;4930057;29;20466;-75
2022/10/12 14:25:05;;;;;;;15.40;3.33;;;15.90;96.30;;;;;;4922317;29;20428;-75
2022/10/12 14:27:31;;;;;;;7.33;3.03;;;16.00;96.30;;;;;;4933889;29;20435;-75
2022/10/12 14:30:06;;;;;;;8.23;2.67;;;15.80;96.30;;;;;;4934565;29;20513;-75
2022/10/12 14:32:36;;;;;;;6.73;2.30;;;15.60;96.30;;;;;;4934610;29;20195;-75
2022/10/12 14:35:25;;;;;;;4.53;2.50;;;15.40;96.30;;;;;;4934733;29;20424;-77
2022/10/12 14:37:52;;;;;;;13.20;2.50;;;;;;;;;;4934192;29;20487;-77
2022/10/12 14:40:37;;;;;;;6.90;2.93;;;;;;;;;;4934148;29;20423;-77
2022/10/12 14:43:19;;;;;;;7.70;2.57;;;;;;;;;;4934139;29;20954;-76
2022/10/12 14:45:45;;;;;;;7.07;2.33;;;;;;;;;;4928651;29;20465;-76
2022/10/12 14:48:18;;;;;;;7.70;3.10;;;14.70;96.30;;;;;;4928889;29;20416;-76
2022/10/12 14:50:44;;;;;;;6.23;3.27;;;;;;;;;;4920974;29;20688;-76
2022/10/12 14:53:12;;;;;;;8.37;2.57;;;;;;;;;;4927887;29;20416;-77
2022/10/12 14:55:38;;;;;;;15.77;4.90;;;14.30;96.30;;;;;;4928772;29;20783;-77
2022/10/12 14:58:08;;;;;;;23.27;6.17;;;;;;;;;;4934116;29;20416;-76
2022/10/12 15:00:36;;;;;;;13.37;6.93;;;14.20;96.30;;;;;;4918509;29;20222;-77
2022/10/12 15:03:03;;;;;;;10.83;5.40;;;14.00;96.30;;;;;;4915477;29;20424;-76
2022/10/12 15:05:33;;;;;;;15.33;5.67;;;;;;;;;;4924249;29;20436;-76
2022/10/12 15:07:59;;;;;;;13.77;4.57;;;13.90;96.30;;;;;;4921234;29;20412;-76
2022/10/12 15:10:26;;;;;;;14.17;5.40;;;;;;;;;;4930902;29;20498;-76
2022/10/12 15:12:52;;;;;;;14.90;5.67;;;;;;;;;;4919361;29;20421;-76
2022/10/12 15:15:18;;;;;;;23.73;7.23;;;;;;;;;;4927134;29;20443;-76
2022/10/12 15:17:44;;;;;;;29.80;7.47;;;;;;;;;;4925507;29;20805;-76
2022/10/12 15:20:10;;;;;;;8.77;4.17;;;;;;;;;;4920289;29;20647;-76
2022/10/12 15:22:37;;;;;;;11.20;5.23;;;;;;;;;;4921898;29;20196;-77
2022/10/12 15:25:17;;;;;;;12.67;6.30;;;13.70;96.30;;;;;;4926579;29;20519;-77
2022/10/12 15:27:43;;;;;;;23.00;8.40;;;;;;;;;;4933754;29;20435;-77
2022/10/12 15:30:09;;;;;;;19.43;8.57;;;13.70;96.30;;;;;;4922082;29;20498;-76
2022/10/12 15:32:35;;;;;;;12.23;6.50;;;;;;;;;;4931429;29;20193;-77
2022/10/12 15:35:09;;;;;;;9.50;5.10;;;;;;;;;;4928810;29;20478;-77
2022/10/12 15:37:35;;;;;;;8.57;4.77;;;;;;;;;;4937144;29;20640;-77
2022/10/12 15:40:01;;;;;;;11.63;3.77;;;;;;;;;;4934853;29;20467;-77
2022/10/12 15:42:27;;;;;;;5.03;2.80;;;;;;;;;;4918492;29;20200;-77
2022/10/12 15:44:52;;;;;;;9.57;3.27;;;13.10;96.30;;;;;;4918989;29;20184;-76
2022/10/12 15:47:18;;;;;;;8.73;3.47;;;12.90;96.30;;;;;;4918721;29;20227;-76
2022/10/12 15:49:43;;;;;;;6.77;3.40;;;;;;;;;;4917402;29;20263;-77
2022/10/12 15:52:10;;;;;;;7.97;3.80;;;12.70;96.30;;;;;;4918505;29;20271;-77
2022/10/12 15:54:36;;;;;;;5.90;2.93;;;;;;;;;;4926099;29;20214;-77
2022/10/12 15:57:02;;;;;;;5.80;2.97;;;12.60;96.30;;;;;;4937034;29;20411;-77
2022/10/12 15:59:27;;;;;;;10.60;4.07;;;12.60;96.30;;;;;;4929862;29;20511;-77
2022/10/12 16:01:53;;;;;;;14.43;6.00;;;;;;;;;;4929257;29;20683;-77
2022/10/12 16:04:19;;;;;;;17.30;5.10;;;;;;;;;;4926714;29;20187;-77
2022/10/12 16:06:45;;;;;;;16.03;5.90;;;12.10;96.30;;;;;;4930720;29;20187;-77
2022/10/12 16:09:11;;;;;;;5.40;3.30;;;;;;;;;;4924937;29;20471;-77
2022/10/12 16:11:37;;;;;;;14.07;4.03;;;;;;;;;;4925923;29;20556;-77
2022/10/12 16:14:02;;;;;;;17.50;5.00;;;11.90;96.30;;;;;;4927070;29;20183;-78
2022/10/12 16:16:30;;;;;;;11.90;3.70;;;;;;;;;;4923897;29;20500;-77
2022/10/12 16:18:56;;;;;;;11.90;4.30;;;;;;;;;;4924887;29;20744;-77
2022/10/12 16:21:22;;;;;;;11.80;5.10;;;;;;;;;;4921912;29;20526;-78
2022/10/12 16:23:48;;;;;;;9.77;5.50;;;;;;;;;;4927364;29;20203;-78
2022/10/12 16:26:14;;;;;;;7.30;3.70;;;;;;;;;;4931453;29;20419;-77
2022/10/12 16:28:40;;;;;;;10.60;3.60;;;11.30;96.30;;;;;;4919410;29;20416;-78
2022/10/12 16:31:09;;;;;;;11.93;5.60;;;11.20;96.30;;;;;;4928055;29;20455;-78
2022/10/12 16:33:35;;;;;;;15.00;6.47;;;;;;;;;;4931869;29;20185;-78
2022/10/12 16:36:13;;;;;;;10.40;5.90;;;11.00;96.30;;;;;;4915957;29;20511;-77
2022/10/12 16:38:39;;;;;;;13.10;6.23;;;;;;;;;;4933460;29;20431;-76
2022/10/12 16:57:16;;;;;;;18.10;8.67;;;;;;;;;;5222614;23;20501;-73
2022/10/12 16:59:42;;;;;;;9.93;5.37;;;;;;;;;;4955356;29;20473;-75
2022/10/12 17:58:17;;;;;;;9.70;4.70;;;;;;;;;;4938690;29;20402;-76
2022/10/12 18:23:07;;;;;;;17.60;7.00;;;;;;;;;;5412330;23;20608;-76
2022/10/12 18:25:39;;;;;;;12.23;6.57;;;;;;;;;;4949846;29;20462;-76
2022/10/12 18:28:06;;;;;;;12.60;6.93;;;;;;;;;;4960549;29;20429;-76
2022/10/12 18:30:33;;;;;;;12.30;6.27;;;;;;;;;;4958556;28;20469;-77
2022/10/12 18:32:59;;;;;;;14.93;6.90;;;;;;;;;;4963453;28;20454;-76
2022/10/12 18:35:33;;;;;;;19.73;8.63;;;;;;;;;;4960774;28;20438;-75
2022/10/12 18:37:59;;;;;;;15.53;6.87;;;;;;;;;;4959648;28;20264;-75
2022/10/12 18:40:25;;;;;;;16.97;7.83;;;;;;;;;;4957273;28;20937;-75
2022/10/12 18:42:51;;;;;;;11.23;6.07;;;;;;;;;;4957265;28;20250;-75
2022/10/12 18:45:17;;;;;;;16.03;7.53;;;;;;;;;;4959718;28;20430;-76
2022/10/12 18:47:43;;;;;;;19.20;6.73;;;;;;;;;;4962483;28;20838;-76
2022/10/12 18:50:09;;;;;;;11.10;6.73;;;;;;;;;;4962313;28;20561;-75
2022/10/12 18:52:35;;;;;;;20.20;8.20;;;;;;;;;;4962547;28;20443;-76
2022/10/12 18:55:01;;;;;;;11.63;5.40;;;;;;;;;;4962337;28;20449;-76
2022/10/12 18:57:27;;;;;;;14.97;6.03;;;;;;;;;;4962854;28;20423;-76
2022/10/12 18:59:53;;;;;;;14.60;6.87;;;;;;;;;;4962954;28;20425;-76